createdAt,value
2022-08-08T00:01:08.254Z,100.00
2022-08-08T00:04:02.003Z,100.00
2022-08-08T00:06:34.996Z,100.00
2022-08-08T00:09:15.996Z,100.00
2022-08-08T00:12:07.561Z,100.00
2022-08-08T00:15:00.746Z,100.00
2022-08-08T00:17:58.743Z,100.00
2022-08-08T00:20:33.795Z,100.00
2022-08-08T00:23:11.924Z,100.00
2022-08-08T00:25:50.817Z,100.00
2022-08-08T00:28:35.547Z,100.00
2022-08-08T00:32:15.446Z,100.00
2022-08-08T00:34:41.413Z,100.00
2022-08-08T00:37:47.764Z,100.00
2022-08-08T00:41:09.056Z,100.00
2022-08-08T00:43:59.198Z,100.00
2022-08-08T00:46:57.991Z,100.00
2022-08-08T00:50:06.090Z,100.00
2022-08-08T00:52:48.443Z,100.00
2022-08-08T00:55:54.149Z,100.00
2022-08-08T00:59:44.345Z,100.00
2022-08-08T01:03:59.768Z,100.00
2022-08-08T01:06:00.887Z,100.00
2022-08-08T01:09:35.970Z,100.00
2022-08-08T01:12:52.302Z,100.00
2022-08-08T01:16:00.247Z,100.00
2022-08-08T01:18:58.294Z,100.00
2022-08-08T01:22:12.578Z,100.00
2022-08-08T01:24:50.859Z,100.00
2022-08-08T01:28:02.127Z,100.00
2022-08-08T01:30:58.541Z,100.00
2022-08-08T01:34:00.015Z,100.00
2022-08-08T01:36:50.989Z,100.00
2022-08-08T01:39:48.537Z,100.00
2022-08-08T01:42:49.208Z,100.00
2022-08-08T01:45:30.522Z,100.00
2022-08-08T01:48:16.976Z,100.00
2022-08-08T01:51:30.070Z,100.00
2022-08-08T01:55:16.513Z,100.00
2022-08-08T01:58:04.113Z,100.00
2022-08-08T02:00:36.706Z,100.00
2022-08-08T02:03:55.896Z,100.00
2022-08-08T02:06:32.287Z,100.00
2022-08-08T02:09:18.935Z,100.00
2022-08-08T02:12:32.285Z,100.00
2022-08-08T02:15:17.039Z,100.00
2022-08-08T02:18:19.844Z,100.00
2022-08-08T02:21:17.882Z,100.00
2022-08-08T02:24:06.190Z,100.00
2022-08-08T02:27:01.356Z,100.00
2022-08-08T02:30:01.015Z,100.00
2022-08-08T02:33:08.451Z,100.00
2022-08-08T02:36:03.715Z,100.00
2022-08-08T02:38:51.548Z,100.00
2022-08-08T02:41:59.157Z,100.00
2022-08-08T02:45:18.878Z,100.00
2022-08-08T02:48:14.738Z,100.00
2022-08-08T02:51:03.172Z,100.00
2022-08-08T02:54:16.508Z,100.00
2022-08-08T02:56:59.107Z,100.00
2022-08-08T03:00:31.772Z,100.00
2022-08-08T03:03:14.836Z,100.00
2022-08-08T03:06:30.582Z,100.00
2022-08-08T03:09:43.691Z,100.00
2022-08-08T03:13:01.226Z,100.00
2022-08-08T03:16:06.200Z,100.00
2022-08-08T03:18:54.037Z,100.00
2022-08-08T03:21:26.862Z,100.00
2022-08-08T03:23:59.697Z,100.00
2022-08-08T03:26:42.201Z,100.00
2022-08-08T03:29:20.901Z,100.00
2022-08-08T03:32:09.345Z,100.00
2022-08-08T03:34:42.095Z,100.00
2022-08-08T03:38:53.401Z,100.00
2022-08-08T03:40:29.689Z,100.00
2022-08-08T03:43:16.776Z,100.00
2022-08-08T03:46:07.315Z,100.00
2022-08-08T03:49:27.978Z,100.00
2022-08-08T03:51:47.131Z,100.00
2022-08-08T03:54:40.779Z,100.00
2022-08-08T03:58:34.566Z,100.00
2022-08-08T04:00:18.321Z,100.00
2022-08-08T04:03:12.122Z,100.00
2022-08-08T04:05:47.947Z,100.00
2022-08-08T04:08:33.484Z,100.00
2022-08-08T04:11:11.042Z,100.00
2022-08-08T04:14:03.242Z,100.00
2022-08-08T04:16:40.883Z,100.00
2022-08-08T04:19:23.301Z,100.00
2022-08-08T04:21:58.524Z,100.00
2022-08-08T04:24:33.341Z,100.00
2022-08-08T04:27:10.377Z,100.00
2022-08-08T04:29:44.773Z,100.00
2022-08-08T04:32:30.888Z,100.00
2022-08-08T04:35:04.476Z,100.00
2022-08-08T04:37:38.278Z,100.00
2022-08-08T04:40:15.361Z,100.00
2022-08-08T04:42:57.329Z,100.00
2022-08-08T04:45:47.395Z,100.00
2022-08-08T04:48:21.691Z,100.00
2022-08-08T04:50:52.271Z,100.00
2022-08-08T04:54:36.156Z,100.00
2022-08-08T04:56:17.678Z,100.00
2022-08-08T04:58:48.483Z,100.00
2022-08-08T05:01:20.997Z,100.00
2022-08-08T05:04:11.563Z,100.00
2022-08-08T05:06:47.433Z,100.00
2022-08-08T05:09:22.352Z,100.00
2022-08-08T05:11:56.578Z,100.00
2022-08-08T05:14:29.314Z,100.00
2022-08-08T05:17:02.105Z,100.00
2022-08-08T05:20:12.848Z,100.00
2022-08-08T05:22:42.185Z,100.00
2022-08-08T05:25:12.884Z,100.00
2022-08-08T05:27:44.351Z,100.00
2022-08-08T05:30:16.717Z,100.00
2022-08-08T05:32:57.908Z,100.00
2022-08-08T05:35:33.988Z,100.00
2022-08-08T05:38:30.631Z,100.00
2022-08-08T05:41:07.704Z,100.00
2022-08-08T05:44:03.924Z,100.00
2022-08-08T05:46:32.225Z,100.00
2022-08-08T05:49:10.904Z,100.00
2022-08-08T05:51:49.071Z,100.00
2022-08-08T05:54:28.873Z,100.00
2022-08-08T05:57:57.706Z,100.00
2022-08-08T06:00:23.629Z,100.00
2022-08-08T06:03:23.697Z,100.00
2022-08-08T06:06:06.765Z,100.00
2022-08-08T06:08:55.012Z,100.00
2022-08-08T06:11:28.288Z,100.00
2022-08-08T06:13:58.767Z,100.00
2022-08-08T06:16:30.577Z,100.00
2022-08-08T06:19:16.184Z,100.00
2022-08-08T06:21:57.560Z,100.00
2022-08-08T06:24:40.031Z,100.00
2022-08-08T06:27:13.659Z,100.00
2022-08-08T06:30:00.858Z,100.00
2022-08-08T06:32:47.767Z,100.00
2022-08-08T06:36:04.287Z,100.00
2022-08-08T06:38:14.924Z,100.00
2022-08-08T06:40:54.224Z,100.00
2022-08-08T06:43:34.128Z,100.00
2022-08-08T06:46:16.414Z,100.00
2022-08-08T06:48:49.312Z,100.00
2022-08-08T06:51:20.265Z,100.00
2022-08-08T06:53:56.420Z,100.00
2022-08-08T06:56:33.679Z,100.00
2022-08-08T06:59:09.755Z,100.00
2022-08-08T07:02:27.378Z,100.00
2022-08-08T07:05:00.478Z,100.00
2022-08-08T07:08:00.057Z,100.00
2022-08-08T07:10:47.526Z,100.00
2022-08-08T07:13:25.037Z,100.00
2022-08-08T07:16:10.659Z,100.00
2022-08-08T07:19:27.576Z,100.00
2022-08-08T07:22:11.931Z,100.00
2022-08-08T07:24:56.690Z,100.00
2022-08-08T07:27:46.952Z,100.00
2022-08-08T07:30:25.822Z,100.00
2022-08-08T07:32:59.419Z,100.00
2022-08-08T07:35:35.463Z,100.00
2022-08-08T07:38:10.052Z,100.00
2022-08-08T07:40:52.203Z,100.00
2022-08-08T07:43:36.670Z,100.00
2022-08-08T07:46:23.738Z,100.00
2022-08-08T07:49:01.868Z,100.00
2022-08-08T07:51:53.472Z,100.00
2022-08-08T07:54:54.123Z,100.00
2022-08-08T07:57:36.010Z,100.00
2022-08-08T08:00:17.192Z,100.00
2022-08-08T08:03:16.802Z,100.00
2022-08-08T08:05:54.554Z,100.00
2022-08-08T08:09:08.315Z,97.50
2022-08-08T08:11:52.493Z,95.63
2022-08-08T08:14:49.780Z,95.45
2022-08-08T08:17:22.387Z,94.15
2022-08-08T08:20:00.598Z,93.80
2022-08-08T08:22:31.707Z,94.53
2022-08-08T08:25:07.806Z,95.56
2022-08-08T08:27:46.603Z,92.28
2022-08-08T08:30:17.358Z,91.85
2022-08-08T08:32:51.191Z,96.28
2022-08-08T08:35:29.701Z,92.99
2022-08-08T08:38:17.299Z,89.26
2022-08-08T08:40:52.809Z,90.62
2022-08-08T08:43:26.721Z,90.26
2022-08-08T08:46:03.641Z,90.28
2022-08-08T08:48:36.499Z,88.29
2022-08-08T08:51:18.963Z,83.61
2022-08-08T08:53:59.745Z,83.40
2022-08-08T08:56:34.722Z,82.96
2022-08-08T08:59:15.143Z,83.88
2022-08-08T09:01:54.154Z,84.55
2022-08-08T09:04:37.941Z,83.47
2022-08-08T09:07:19.105Z,84.56
2022-08-08T09:09:55.324Z,81.58
2022-08-08T09:12:31.463Z,81.52
2022-08-08T09:15:01.787Z,74.27
2022-08-08T09:17:41.640Z,74.97
2022-08-08T09:21:56.668Z,73.88
2022-08-08T09:23:17.854Z,78.66
2022-08-08T09:26:04.010Z,74.91
2022-08-08T09:28:43.172Z,77.37
2022-08-08T09:31:24.015Z,77.59
2022-08-08T09:34:30.523Z,75.39
2022-08-08T09:36:51.665Z,74.80
2022-08-08T09:40:11.145Z,70.75
2022-08-08T09:42:44.384Z,66.96
2022-08-08T09:46:03.139Z,65.57
2022-08-08T09:48:42.615Z,66.88
2022-08-08T09:51:12.550Z,67.64
2022-08-08T09:53:59.111Z,67.31
2022-08-08T09:56:41.294Z,67.64
2022-08-08T09:59:53.250Z,62.37
2022-08-08T10:02:12.565Z,62.73
2022-08-08T10:04:47.808Z,65.94
2022-08-08T10:07:19.119Z,62.38
2022-08-08T10:09:59.208Z,64.47
2022-08-08T10:12:53.811Z,64.42
2022-08-08T10:15:29.282Z,63.02
2022-08-08T10:18:10.587Z,65.74
2022-08-08T10:20:58.215Z,65.24
2022-08-08T10:23:58.586Z,60.71
2022-08-08T10:26:59.431Z,58.41
2022-08-08T10:29:58.871Z,58.06
2022-08-08T10:32:48.585Z,58.57
2022-08-08T10:36:08.312Z,59.42
2022-08-08T10:38:17.892Z,59.33
2022-08-08T10:40:54.722Z,60.89
2022-08-08T10:43:25.173Z,59.22
2022-08-08T10:46:03.446Z,60.18
2022-08-08T10:48:56.700Z,62.12
2022-08-08T10:51:31.337Z,60.92
2022-08-08T10:54:10.960Z,60.23
2022-08-08T10:56:43.739Z,62.69
2022-08-08T10:59:14.656Z,62.27
2022-08-08T11:01:49.594Z,62.68
2022-08-08T11:04:29.802Z,62.64
2022-08-08T11:07:15.048Z,62.07
2022-08-08T11:09:58.095Z,60.45
2022-08-08T11:12:29.174Z,59.70
2022-08-08T11:15:01.566Z,59.98
2022-08-08T11:17:58.476Z,59.29
2022-08-08T11:20:31.750Z,58.46
2022-08-08T11:23:05.801Z,59.35
2022-08-08T11:25:51.779Z,58.46
2022-08-08T11:28:29.361Z,60.51
2022-08-08T11:31:03.983Z,62.07
2022-08-08T11:33:51.128Z,60.84
2022-08-08T11:36:22.998Z,61.59
2022-08-08T11:38:58.794Z,63.62
2022-08-08T11:41:33.564Z,64.59
2022-08-08T11:44:05.547Z,62.90
2022-08-08T11:46:36.994Z,62.06
2022-08-08T11:49:14.591Z,62.08
2022-08-08T11:51:50.708Z,60.60
2022-08-08T11:54:38.269Z,61.37
2022-08-08T11:57:34.870Z,61.30
2022-08-08T12:00:09.799Z,63.54
2022-08-08T12:02:54.920Z,61.56
2022-08-08T12:05:38.698Z,59.41
2022-08-08T12:08:08.394Z,59.03
2022-08-08T12:10:52.884Z,60.05
2022-08-08T12:13:37.622Z,63.51
2022-08-08T12:16:19.577Z,59.35
2022-08-08T12:18:58.151Z,58.64
2022-08-08T12:21:59.218Z,58.54
2022-08-08T12:24:28.057Z,57.89
2022-08-08T12:26:59.198Z,59.29
2022-08-08T12:29:40.512Z,57.77
2022-08-08T12:32:20.764Z,58.28
2022-08-08T12:35:04.475Z,59.10
2022-08-08T12:37:40.872Z,58.45
2022-08-08T12:40:22.357Z,58.86
2022-08-08T12:42:55.679Z,56.24
2022-08-08T12:45:58.073Z,53.58
2022-08-08T12:48:37.627Z,53.14
2022-08-08T12:51:11.122Z,53.48
2022-08-08T12:53:59.564Z,54.21
2022-08-08T12:56:43.332Z,52.84
2022-08-08T12:59:44.478Z,51.68
2022-08-08T13:02:28.526Z,54.08
2022-08-08T13:05:05.909Z,56.31
2022-08-08T13:08:03.786Z,54.93
2022-08-08T13:10:55.471Z,54.84
2022-08-08T13:13:36.998Z,54.24
2022-08-08T13:16:30.025Z,52.64
2022-08-08T13:19:07.893Z,52.44
2022-08-08T13:21:58.353Z,52.15
2022-08-08T13:24:47.908Z,53.07
2022-08-08T13:27:23.144Z,50.82
2022-08-08T13:30:08.148Z,52.01
2022-08-08T13:32:41.641Z,52.05
2022-08-08T13:35:24.907Z,51.61
2022-08-08T13:38:08.598Z,50.98
2022-08-08T13:40:45.181Z,50.85
2022-08-08T13:43:20.913Z,51.54
2022-08-08T13:45:50.373Z,52.06
2022-08-08T13:48:25.715Z,51.31
2022-08-08T13:51:17.381Z,52.41
2022-08-08T13:54:00.790Z,51.10
2022-08-08T13:56:44.555Z,50.49
2022-08-08T13:59:32.789Z,51.16
2022-08-08T14:02:07.831Z,51.03
2022-08-08T14:04:52.766Z,50.40
2022-08-08T14:07:25.076Z,50.30
2022-08-08T14:10:17.390Z,51.01
2022-08-08T14:12:48.499Z,51.88
2022-08-08T14:15:39.628Z,51.36
2022-08-08T14:18:36.019Z,51.44
2022-08-08T14:21:15.050Z,49.66
2022-08-08T14:24:06.652Z,49.94
2022-08-08T14:26:46.222Z,49.31
2022-08-08T14:29:29.968Z,49.84
2022-08-08T14:32:08.818Z,50.15
2022-08-08T14:34:43.566Z,50.02
2022-08-08T14:37:19.749Z,50.58
2022-08-08T14:40:05.204Z,50.21
2022-08-08T14:42:54.761Z,50.65
2022-08-08T14:45:33.360Z,49.36
2022-08-08T14:48:27.474Z,50.14
2022-08-08T14:51:08.651Z,49.68
2022-08-08T14:53:55.993Z,50.51
2022-08-08T14:56:27.426Z,49.27
2022-08-08T14:58:58.823Z,50.14
2022-08-08T15:01:37.101Z,48.99
2022-08-08T15:04:10.491Z,48.71
2022-08-08T15:06:42.631Z,49.45
2022-08-08T15:09:13.899Z,51.52
2022-08-08T15:11:53.042Z,51.24
2022-08-08T15:14:25.118Z,49.00
2022-08-08T15:16:56.943Z,51.12
2022-08-08T15:19:28.053Z,49.50
2022-08-08T15:21:58.428Z,49.38
2022-08-08T15:24:31.747Z,49.07
2022-08-08T15:27:11.947Z,50.19
2022-08-08T15:29:50.947Z,49.93
2022-08-08T15:32:27.337Z,49.89
2022-08-08T15:35:00.313Z,49.46
2022-08-08T15:37:30.270Z,49.76
2022-08-08T15:40:00.921Z,50.22
2022-08-08T15:42:31.816Z,50.68
2022-08-08T15:45:12.870Z,50.60
2022-08-08T15:48:05.354Z,50.14
2022-08-08T15:50:51.622Z,50.13
2022-08-08T15:53:23.841Z,50.55
2022-08-08T15:55:55.424Z,51.35
2022-08-08T15:58:28.245Z,52.90
2022-08-08T16:01:01.144Z,52.88
2022-08-08T16:03:30.542Z,52.02
2022-08-08T16:06:02.391Z,51.75
2022-08-08T16:08:32.712Z,51.32
2022-08-08T16:13:11.263Z,51.34
2022-08-08T16:13:53.319Z,51.57
2022-08-08T16:16:23.017Z,52.96
2022-08-08T16:18:56.453Z,51.41
2022-08-08T16:21:31.646Z,50.99
2022-08-08T16:24:04.760Z,51.61
2022-08-08T16:26:36.966Z,51.70
2022-08-08T16:29:09.449Z,51.26
2022-08-08T16:31:48.971Z,50.35
2022-08-08T16:34:22.288Z,51.02
2022-08-08T16:36:54.425Z,52.28
2022-08-08T16:39:49.058Z,53.75
2022-08-08T16:42:18.588Z,54.72
2022-08-08T16:44:54.266Z,54.94
2022-08-08T16:47:39.803Z,55.70
2022-08-08T16:50:14.056Z,55.80
2022-08-08T16:55:03.836Z,55.92
2022-08-08T16:55:55.693Z,57.01
2022-08-08T16:58:34.707Z,57.96
2022-08-08T17:01:09.158Z,60.27
2022-08-08T17:03:58.865Z,61.92
2022-08-08T17:06:37.374Z,62.58
2022-08-08T17:09:14.665Z,62.96
2022-08-08T17:11:49.181Z,63.89
2022-08-08T17:14:33.102Z,64.12
2022-08-08T17:17:41.729Z,64.01
2022-08-08T17:19:58.299Z,64.75
2022-08-08T17:22:39.359Z,64.92
2022-08-08T17:25:12.331Z,64.90
2022-08-08T17:27:47.343Z,62.92
2022-08-08T17:30:23.399Z,62.72
2022-08-08T17:34:37.727Z,64.27
2022-08-08T17:35:55.238Z,63.55
2022-08-08T17:38:35.711Z,62.63
2022-08-08T17:41:06.104Z,63.30
2022-08-08T17:44:01.401Z,63.10
2022-08-08T17:46:43.516Z,61.31
2022-08-08T17:49:16.525Z,62.26
2022-08-08T17:51:53.963Z,63.28
2022-08-08T17:54:28.880Z,62.91
2022-08-08T17:56:58.847Z,63.15
2022-08-08T17:59:30.393Z,64.03
2022-08-08T18:02:11.363Z,64.93
2022-08-08T18:04:49.404Z,65.18
2022-08-08T18:08:04.063Z,66.27
2022-08-08T18:10:11.161Z,67.68
2022-08-08T18:12:40.653Z,68.04
2022-08-08T18:15:12.893Z,68.28
2022-08-08T18:18:10.026Z,68.53
2022-08-08T18:20:44.141Z,69.80
2022-08-08T18:23:21.103Z,71.29
2022-08-08T18:25:52.607Z,72.71
2022-08-08T18:28:25.443Z,73.47
2022-08-08T18:30:55.245Z,74.21
2022-08-08T18:34:10.400Z,75.54
2022-08-08T18:36:18.933Z,75.82
2022-08-08T18:38:53.363Z,77.17
2022-08-08T18:41:51.637Z,77.60
2022-08-08T18:44:12.753Z,79.01
2022-08-08T18:46:55.821Z,80.20
2022-08-08T18:49:32.674Z,80.63
2022-08-08T18:52:22.647Z,81.39
2022-08-08T18:55:00.587Z,82.01
2022-08-08T18:57:45.617Z,82.74
2022-08-08T19:00:24.380Z,83.71
2022-08-08T19:03:03.971Z,83.88
2022-08-08T19:05:45.387Z,84.67
2022-08-08T19:08:24.033Z,85.59
2022-08-08T19:10:56.133Z,86.07
2022-08-08T19:13:25.535Z,86.93
2022-08-08T19:16:18.563Z,88.45
2022-08-08T19:19:00.208Z,88.54
2022-08-08T19:21:33.407Z,89.81
2022-08-08T19:24:39.348Z,91.10
2022-08-08T19:27:07.361Z,92.47
2022-08-08T19:29:42.400Z,93.27
2022-08-08T19:32:21.836Z,93.61
2022-08-08T19:34:52.948Z,94.38
2022-08-08T19:37:42.606Z,95.60
2022-08-08T19:40:16.596Z,96.41
2022-08-08T19:42:46.147Z,97.50
2022-08-08T19:45:59.630Z,97.46
2022-08-08T19:48:07.908Z,97.75
2022-08-08T19:50:56.368Z,98.00
2022-08-08T19:53:51.590Z,97.18
2022-08-08T19:56:25.759Z,97.28
2022-08-08T19:59:07.584Z,96.76
2022-08-08T20:02:01.422Z,96.81
2022-08-08T20:04:27.172Z,96.51
2022-08-08T20:06:56.765Z,96.24
2022-08-08T20:09:30.153Z,96.45
2022-08-08T20:12:01.957Z,96.59
2022-08-08T20:14:35.887Z,97.10
2022-08-08T20:17:07.085Z,97.75
2022-08-08T20:19:43.352Z,98.37
2022-08-08T20:22:30.409Z,98.17
2022-08-08T20:25:00.515Z,98.85
2022-08-08T20:27:43.555Z,99.25
2022-08-08T20:30:38.935Z,100.00
2022-08-08T20:33:18.489Z,100.00
2022-08-08T20:35:59.135Z,100.00
2022-08-08T20:38:37.495Z,100.00
2022-08-08T20:41:17.646Z,100.00
2022-08-08T20:43:50.286Z,100.00
2022-08-08T20:46:25.595Z,100.00
2022-08-08T20:48:58.144Z,100.00
2022-08-08T20:51:32.458Z,100.00
2022-08-08T20:54:13.992Z,100.00
2022-08-08T20:57:11.756Z,100.00
2022-08-08T20:59:41.370Z,100.00
2022-08-08T21:02:12.494Z,100.00
2022-08-08T21:04:43.581Z,100.00
2022-08-08T21:07:17.287Z,100.00
2022-08-08T21:10:12.318Z,100.00
2022-08-08T21:12:44.489Z,100.00
2022-08-08T21:15:16.462Z,100.00
2022-08-08T21:18:05.587Z,100.00
2022-08-08T21:20:35.135Z,100.00
2022-08-08T21:23:09.170Z,100.00
2022-08-08T21:25:39.123Z,100.00
2022-08-08T21:28:15.619Z,100.00
2022-08-08T21:30:52.106Z,100.00
2022-08-08T21:33:21.911Z,100.00
2022-08-08T21:36:16.837Z,100.00
2022-08-08T21:38:40.621Z,100.00
2022-08-08T21:41:09.947Z,100.00
2022-08-08T21:43:58.360Z,100.00
2022-08-08T21:48:07.001Z,100.00
2022-08-08T21:49:18.540Z,100.00
2022-08-08T21:54:36.377Z,100.00
2022-08-08T21:55:02.941Z,100.00
2022-08-08T21:57:28.921Z,100.00
2022-08-08T22:00:14.168Z,100.00
2022-08-08T22:02:44.707Z,100.00
2022-08-08T22:05:16.049Z,100.00
2022-08-08T22:07:49.004Z,100.00
2022-08-08T22:10:32.128Z,100.00
2022-08-08T22:13:17.021Z,100.00
2022-08-08T22:15:59.002Z,100.00
2022-08-08T22:18:31.226Z,100.00
2022-08-08T22:21:14.288Z,100.00
2022-08-08T22:23:50.867Z,100.00
2022-08-08T22:26:30.695Z,100.00
2022-08-08T22:29:57.190Z,100.00
2022-08-08T22:32:01.408Z,100.00
2022-08-08T22:34:39.364Z,100.00
2022-08-08T22:37:14.796Z,100.00
2022-08-08T22:40:00.569Z,100.00
2022-08-08T22:42:34.428Z,100.00
2022-08-08T22:45:12.101Z,100.00
2022-08-08T22:47:48.796Z,100.00
2022-08-08T22:50:27.505Z,100.00
2022-08-08T22:54:30.755Z,100.00
2022-08-08T22:55:59.826Z,100.00
2022-08-08T22:58:35.591Z,100.00
2022-08-08T23:02:03.002Z,100.00
2022-08-08T23:04:02.625Z,100.00
2022-08-08T23:06:32.014Z,100.00
2022-08-08T23:09:02.365Z,100.00
2022-08-08T23:12:17.460Z,100.00
2022-08-08T23:14:31.553Z,100.00
2022-08-08T23:17:02.465Z,100.00
2022-08-08T23:19:33.044Z,100.00
2022-08-08T23:22:08.275Z,100.00
2022-08-08T23:24:41.238Z,100.00
2022-08-08T23:27:37.547Z,100.00
2022-08-08T23:30:05.701Z,100.00
2022-08-08T23:32:44.054Z,100.00
2022-08-08T23:35:17.386Z,100.00
2022-08-08T23:38:02.545Z,100.00
2022-08-08T23:40:33.183Z,100.00
2022-08-08T23:43:04.488Z,100.00
2022-08-08T23:49:03.022Z,100.00
2022-08-08T23:49:04.614Z,100.00
2022-08-08T23:51:41.863Z,100.00
2022-08-08T23:54:41.795Z,100.00
2022-08-08T23:56:56.906Z,100.00
2022-08-08T23:59:26.272Z,100.00
